Time;durP1;ratioP1;P1;durP2;ratioP2;P2;SDS_P1;SDS_P2;PMS_P1;PMS_P2;Temp;Humidity;BMP_temperature;BMP_pressure;BME280_temperature;BME280_humidity;BME280_pressure;Samples;Min_cycle;Max_cycle;Signal;HPM_P1;HPM_P2
2022/03/09 00:00:44;;;;;;;0.90;0.90;;;;;;;0.50;100.00;101929.25;5045744;28;20052;-82
2022/03/09 00:03:13;;;;;;;1.00;1.00;;;;;;;0.40;100.00;101939.38;5046170;28;20413;-81
2022/03/09 00:05:41;;;;;;;0.88;0.88;;;;;;;0.39;100.00;101935.03;5039976;28;20045;-81
2022/03/09 00:08:15;;;;;;;0.98;0.98;;;;;;;0.33;100.00;101942.78;5036886;28;20050;-81
2022/03/09 00:10:43;;;;;;;1.10;1.10;;;;;;;0.29;100.00;101946.00;5043005;28;20048;-81
2022/03/09 00:13:16;;;;;;;1.00;1.00;;;;;;;0.33;100.00;101956.19;5046290;28;20055;-81
2022/03/09 00:15:44;;;;;;;0.98;0.98;;;;;;;0.14;100.00;101946.78;5039577;28;20052;-82
2022/03/09 00:18:19;;;;;;;1.00;1.00;;;;;;;0.25;100.00;101966.09;5038851;28;20041;-82
2022/03/09 00:20:47;;;;;;;1.00;1.00;;;;;;;0.23;100.00;101958.25;5046215;28;20064;-82
2022/03/09 00:23:22;;;;;;;1.00;1.00;;;;;;;0.26;100.00;101968.63;5040469;28;20053;-82
2022/03/09 00:25:50;;;;;;;1.00;1.00;;;;;;;0.28;100.00;101971.94;5034907;28;20069;-81
2022/03/09 00:28:23;;;;;;;1.20;1.20;;;;;;;0.19;100.00;101970.34;5060496;28;20080;-81
2022/03/09 00:30:56;;;;;;;1.10;1.10;;;;;;;0.13;100.00;101973.75;5054014;28;20053;-82
2022/03/09 00:33:29;;;;;;;1.10;1.10;;;;;;;0.11;100.00;101973.94;5047846;28;20048;-81
2022/03/09 00:36:02;;;;;;;1.10;1.10;;;;;;;0.13;100.00;101974.56;5033409;28;20533;-82
2022/03/09 00:38:37;;;;;;;1.20;1.20;;;;;;;0.07;100.00;101969.94;5033045;28;20034;-81
2022/03/09 00:41:05;;;;;;;1.20;1.20;;;;;;;0.04;100.00;101969.44;5053463;28;20045;-81
2022/03/09 00:43:38;;;;;;;1.10;1.10;;;;;;;-0.03;100.00;101970.19;5045282;28;20057;-82
2022/03/09 00:46:06;;;;;;;1.05;1.05;;;;;;;-0.05;100.00;101966.00;5042379;28;20473;-81
2022/03/09 00:48:39;;;;;;;1.10;1.10;;;;;;;-0.14;100.00;101961.72;5044984;28;20044;-81
2022/03/09 00:51:12;;;;;;;1.10;1.10;;;;;;;-0.18;100.00;101962.06;5042511;28;20037;-81
2022/03/09 00:53:47;;;;;;;1.02;1.02;;;;;;;-0.15;100.00;101966.25;5039809;28;20050;-81
2022/03/09 00:56:20;;;;;;;1.30;1.30;;;;;;;-0.12;100.00;101965.06;5040753;28;20057;-81
2022/03/09 00:58:49;;;;;;;1.20;1.20;;;;;;;-0.16;100.00;101961.06;5052359;28;20040;-82
2022/03/09 01:01:22;;;;;;;1.10;1.10;;;;;;;-0.16;100.00;101969.09;5040443;28;20049;-81
2022/03/09 01:03:50;;;;;;;1.42;1.38;;;;;;;-0.20;100.00;101958.72;5035860;28;20056;-81
2022/03/09 01:06:23;;;;;;;1.45;1.38;;;;;;;-0.16;100.00;101963.75;5044593;28;20052;-81
2022/03/09 01:08:53;;;;;;;1.30;1.30;;;;;;;-0.29;100.00;101962.47;5057293;28;20040;-81
2022/03/09 01:11:26;;;;;;;1.27;1.27;;;;;;;-0.32;100.00;101953.97;5047394;28;20382;-81
2022/03/09 01:14:00;;;;;;;1.33;1.33;;;;;;;-0.24;100.00;101964.63;5040022;28;20371;-80
2022/03/09 01:16:34;;;;;;;1.45;1.40;;;;;;;-0.28;100.00;101964.13;5038650;28;20033;-81
2022/03/09 01:19:07;;;;;;;1.33;1.33;;;;;;;-0.29;100.00;101962.47;5046034;28;20049;-81
2022/03/09 01:21:40;;;;;;;1.63;1.52;;;;;;;-0.26;100.00;101966.63;5039731;28;20386;-81
2022/03/09 01:24:15;;;;;;;1.55;1.45;;;;;;;-0.30;100.00;101962.63;5042890;28;20517;-81
2022/03/09 01:26:48;;;;;;;1.70;1.60;;;;;;;-0.29;100.00;101959.81;5042793;28;20050;-81
2022/03/09 01:29:16;;;;;;;1.52;1.42;;;;;;;-0.30;100.00;101960.81;5034503;28;20040;-81
2022/03/09 01:31:49;;;;;;;1.70;1.60;;;;;;;-0.30;100.00;101976.84;5044105;28;20048;-81
2022/03/09 01:34:22;;;;;;;1.60;1.50;;;;;;;-0.41;100.00;101962.03;5038906;28;20053;-81
2022/03/09 01:36:56;;;;;;;1.80;1.70;;;;;;;-0.50;100.00;101948.88;5032465;28;20064;-80
2022/03/09 01:39:30;;;;;;;1.80;1.70;;;;;;;-0.50;100.00;101960.38;5038072;28;20583;-81
2022/03/09 01:42:04;;;;;;;1.60;1.50;;;;;;;-0.55;100.00;101952.09;5040690;28;20056;-80
2022/03/09 01:44:32;;;;;;;1.63;1.52;;;;;;;-0.68;100.00;101944.59;5035538;28;20057;-81
2022/03/09 01:47:00;;;;;;;1.90;1.80;;;;;;;-0.73;100.00;101950.47;5038627;28;20045;-81
2022/03/09 01:49:34;;;;;;;1.90;1.80;;;;;;;-0.70;100.00;101954.66;5038945;28;20064;-81
2022/03/09 01:52:08;;;;;;;1.70;1.60;;;;;;;-0.71;100.00;101953.78;5033846;28;20057;-80
2022/03/09 01:54:42;;;;;;;2.22;2.13;;;;;;;-0.77;100.00;101956.34;5034040;28;20048;-81
2022/03/09 01:57:16;;;;;;;1.77;1.67;;;;;;;-0.78;100.00;101960.03;5035839;28;20061;-81
2022/03/09 01:59:49;;;;;;;1.95;1.85;;;;;;;-0.84;100.00;101952.69;5037502;28;20050;-81
2022/03/09 02:02:23;;;;;;;2.13;2.03;;;;;;;-0.86;100.00;101959.06;5038313;28;20048;-81
2022/03/09 02:04:56;;;;;;;2.20;2.10;;;;;;;-0.97;100.00;101953.22;5039428;28;20540;-81
2022/03/09 02:10:19;;;;;;;2.15;2.05;;;;;;;-1.01;100.00;101966.09;5040453;28;20051;-81
2022/03/09 02:12:52;;;;;;;2.05;1.95;;;;;;;-1.09;100.00;101955.41;5037915;28;20057;-81
2022/03/09 02:15:20;;;;;;;2.80;2.60;;;;;;;-1.03;100.00;101960.09;5036648;28;20508;-80
2022/03/09 02:17:53;;;;;;;2.38;2.28;;;;;;;-1.10;100.00;101964.47;5033148;28;20053;-81
2022/03/09 02:20:26;;;;;;;2.45;2.35;;;;;;;-1.12;100.00;101956.63;5041034;28;20059;-81
2022/03/09 02:22:56;;;;;;;2.80;2.60;;;;;;;-1.22;100.00;101966.66;5035172;28;20053;-81
2022/03/09 02:25:29;;;;;;;2.80;2.60;;;;;;;-1.35;100.00;101961.84;5048273;28;20540;-81
2022/03/09 02:28:02;;;;;;;2.58;2.45;;;;;;;-1.36;100.00;101954.81;5037406;28;20037;-81
2022/03/09 02:30:35;;;;;;;3.00;2.80;;;;;;;-1.36;100.00;101957.50;5054332;28;20067;-81
2022/03/09 02:33:03;;;;;;;2.50;2.40;;;;;;;-1.38;100.00;101959.50;5057694;28;20055;-81
2022/03/09 02:35:32;;;;;;;2.85;2.65;;;;;;;-1.42;100.00;101959.00;5043620;28;20053;-80
2022/03/09 02:38:06;;;;;;;2.83;2.63;;;;;;;-1.39;100.00;101953.31;5037777;28;20505;-81
2022/03/09 02:40:39;;;;;;;3.08;2.88;;;;;;;-1.39;100.00;101955.16;5044880;28;20044;-81
2022/03/09 02:43:13;;;;;;;3.35;3.15;;;;;;;-1.45;100.00;101942.47;5040304;28;20049;-80
2022/03/09 02:45:46;;;;;;;3.38;3.17;;;;;;;-1.41;100.00;101954.47;5050433;28;20053;-81
2022/03/09 02:48:14;;;;;;;3.58;3.38;;;;;;;-1.37;100.00;101945.97;5032300;28;20053;-81
2022/03/09 02:50:47;;;;;;;3.72;3.53;;;;;;;-1.30;100.00;101946.13;5037600;28;20064;-81
2022/03/09 02:53:21;;;;;;;3.85;3.60;;;;;;;-1.33;100.00;101946.47;5035370;28;20041;-81
2022/03/09 02:55:55;;;;;;;4.07;3.78;;;;;;;-1.26;100.00;101950.13;5041456;28;20505;-80
2022/03/09 02:58:28;;;;;;;3.75;3.53;;;;;;;-1.27;100.00;101952.97;5044551;28;20049;-81
2022/03/09 03:01:01;;;;;;;4.00;3.70;;;;;;;-1.26;100.00;101939.44;5050408;28;20071;-81
2022/03/09 03:03:34;;;;;;;3.88;3.60;;;;;;;-1.29;100.00;101952.31;5039652;28;20048;-82
2022/03/09 03:06:08;;;;;;;3.72;3.50;;;;;;;-1.33;100.00;101948.31;5058594;28;20056;-81
2022/03/09 03:08:42;;;;;;;4.38;4.07;;;;;;;-1.34;100.00;101960.00;5035778;28;20049;-81
2022/03/09 03:11:12;;;;;;;4.22;3.92;;;;;;;-1.51;100.00;101956.50;5042555;28;20497;-81
2022/03/09 03:13:45;;;;;;;4.20;3.90;;;;;;;-1.60;100.00;101951.19;5037118;28;20057;-80
2022/03/09 03:16:18;;;;;;;4.28;3.97;;;;;;;-1.54;100.00;101952.34;5052817;28;20056;-81
2022/03/09 03:18:51;;;;;;;4.40;4.10;;;;;;;-1.58;100.00;101940.31;5048362;28;20054;-81
2022/03/09 03:21:25;;;;;;;4.47;4.18;;;;;;;-1.52;100.00;101957.50;5054956;28;20045;-81
2022/03/09 03:23:59;;;;;;;4.72;4.43;;;;;;;-1.47;100.00;101953.31;5037506;28;20064;-81
2022/03/09 03:26:32;;;;;;;5.25;4.85;;;;;;;-1.49;100.00;101936.66;5043914;28;20060;-81
2022/03/09 03:29:06;;;;;;;4.85;4.55;;;;;;;-1.61;100.00;101925.47;5039144;28;20405;-81
2022/03/09 03:31:39;;;;;;;5.78;5.38;;;;;;;-1.52;100.00;101946.81;5045484;28;20485;-81
2022/03/09 03:34:12;;;;;;;5.32;4.93;;;;;;;-1.65;100.00;101942.00;5051456;28;20072;-81
2022/03/09 03:36:45;;;;;;;5.85;5.45;;;;;;;-1.64;100.00;101931.16;5045503;28;20489;-81
2022/03/09 03:39:19;;;;;;;6.10;5.70;;;;;;;-1.65;100.00;101926.81;5040024;28;20049;-81
2022/03/09 03:41:53;;;;;;;6.55;6.05;;;;;;;-1.71;100.00;101936.31;5048766;28;20076;-80
2022/03/09 03:44:26;;;;;;;6.40;5.93;;;;;;;-1.73;100.00;101933.00;5042152;28;20649;-81
2022/03/09 03:46:59;;;;;;;6.80;6.30;;;;;;;-1.76;100.00;101932.50;5064458;28;20064;-81
2022/03/09 03:49:27;;;;;;;7.45;6.95;;;;;;;-1.74;100.00;101931.31;5043590;28;20071;-81
2022/03/09 03:51:55;;;;;;;7.63;7.13;;;;;;;-1.74;100.00;101936.66;5039382;28;20425;-82
2022/03/09 03:54:24;;;;;;;7.05;6.55;;;;;;;-1.80;100.00;101926.66;5047124;28;20396;-81
2022/03/09 03:56:57;;;;;;;7.10;6.60;;;;;;;-1.64;100.00;101947.16;5041702;28;20049;-80
2022/03/09 03:59:31;;;;;;;7.32;6.82;;;;;;;-1.61;100.00;101948.69;5045016;28;20037;-80
2022/03/09 04:02:04;;;;;;;7.45;6.95;;;;;;;-1.61;100.00;101944.16;5073906;28;20048;-82
2022/03/09 04:04:37;;;;;;;7.50;7.00;;;;;;;-1.58;100.00;101943.00;5064376;28;20095;-81
2022/03/09 04:07:10;;;;;;;8.27;7.68;;;;;;;-1.67;100.00;101931.50;5050626;28;20072;-81
2022/03/09 04:09:44;;;;;;;7.90;7.38;;;;;;;-1.60;100.00;101944.97;5049553;28;20048;-81
2022/03/09 04:12:17;;;;;;;8.32;7.72;;;;;;;-1.67;100.00;101941.31;5037459;28;20393;-80
2022/03/09 04:14:51;;;;;;;8.02;7.43;;;;;;;-1.76;100.00;101937.84;5048847;28;20045;-81
2022/03/09 04:17:24;;;;;;;7.50;7.00;;;;;;;-1.73;100.00;101935.69;5056017;28;20049;-80
2022/03/09 04:19:52;;;;;;;8.25;7.65;;;;;;;-1.76;100.00;101952.00;5062246;28;20124;-81
2022/03/09 04:22:25;;;;;;;8.05;7.45;;;;;;;-1.78;100.00;101947.81;5036372;28;20056;-80
2022/03/09 04:24:54;;;;;;;8.68;8.07;;;;;;;-1.88;100.00;101946.16;5038495;28;20053;-81
2022/03/09 04:27:28;;;;;;;8.15;7.55;;;;;;;-1.90;100.00;101934.00;5037486;28;20037;-81
2022/03/09 04:30:01;;;;;;;8.75;8.15;;;;;;;-1.85;100.00;101937.00;5047031;28;20048;-81
2022/03/09 04:32:34;;;;;;;8.32;7.72;;;;;;;-2.03;100.00;101945.16;5032168;28;20057;-80
2022/03/09 04:35:03;;;;;;;8.52;7.93;;;;;;;-2.07;100.00;101944.66;5054110;28;20057;-81
2022/03/09 04:37:36;;;;;;;9.25;8.65;;;;;;;-2.09;100.00;101946.63;5053616;28;20045;-81
2022/03/09 04:40:12;;;;;;;9.38;8.75;;;;;;;-2.14;100.00;101932.97;5049056;28;20049;-80
2022/03/09 04:42:40;;;;;;;10.60;9.90;;;;;;;-2.15;100.00;101933.97;5042856;28;20048;-81
2022/03/09 04:45:14;;;;;;;11.02;10.32;;;;;;;-2.15;100.00;101939.31;5047338;28;20084;-81
2022/03/09 04:47:47;;;;;;;10.50;9.80;;;;;;;-2.09;100.00;101941.28;5040522;28;20080;-81
2022/03/09 04:50:20;;;;;;;10.70;10.00;;;;;;;-2.12;100.00;101946.16;5050800;28;20497;-82
2022/03/09 04:52:53;;;;;;;12.48;11.68;;;;;;;-2.08;100.00;101947.50;5040644;28;20060;-81
2022/03/09 04:55:28;;;;;;;12.60;11.80;;;;;;;-2.07;100.00;101954.50;5034900;28;20048;-81
2022/03/09 04:58:01;;;;;;;12.13;11.32;;;;;;;-2.08;100.00;101953.66;5031530;28;20049;-80
2022/03/09 05:00:34;;;;;;;13.18;12.38;;;;;;;-2.18;100.00;101952.97;5041974;28;20401;-81
2022/03/09 05:03:02;;;;;;;12.98;12.18;;;;;;;-2.15;100.00;101949.16;5037047;28;20060;-81
2022/03/09 05:05:36;;;;;;;13.45;12.60;;;;;;;-2.14;100.00;101946.31;5039947;28;20040;-81
2022/03/09 05:08:09;;;;;;;15.32;14.43;;;;;;;-2.12;100.00;101946.16;5044013;28;20058;-81
2022/03/09 05:10:45;;;;;;;16.17;15.18;;;;;;;-2.22;100.00;101932.97;5046666;28;20068;-81
2022/03/09 05:13:20;;;;;;;15.27;14.38;;;;;;;-2.18;100.00;101952.97;5043154;28;20053;-81
2022/03/09 05:15:53;;;;;;;16.10;15.10;;;;;;;-2.13;100.00;101958.63;5046099;28;20068;-80
2022/03/09 05:18:26;;;;;;;16.75;15.75;;;;;;;-2.14;100.00;101959.66;5044619;28;20072;-80
2022/03/09 05:20:59;;;;;;;17.52;16.52;;;;;;;-2.13;100.00;101960.47;5039393;28;20057;-81
2022/03/09 05:23:27;;;;;;;18.88;17.77;;;;;;;-2.13;100.00;101957.81;5048343;28;20048;-80
2022/03/09 05:26:01;;;;;;;18.40;17.30;;;;;;;-2.25;100.00;101949.28;5043821;28;20061;-81
2022/03/09 05:28:35;;;;;;;18.67;17.58;;;;;;;-2.14;100.00;101969.47;5042983;28;20412;-80
2022/03/09 05:31:08;;;;;;;19.70;18.55;;;;;;;-2.17;100.00;101967.13;5046937;28;20504;-81
2022/03/09 05:33:41;;;;;;;20.88;19.67;;;;;;;-2.24;100.00;101958.94;5031161;28;20497;-81
2022/03/09 05:36:14;;;;;;;22.45;21.15;;;;;;;-2.25;100.00;101968.78;5040553;28;20048;-81
2022/03/09 05:38:47;;;;;;;21.10;19.90;;;;;;;-2.23;100.00;101965.94;5032063;28;20046;-81
2022/03/09 05:41:22;;;;;;;20.45;19.25;;;;;;;-2.20;100.00;101970.94;5053991;28;20049;-81
2022/03/09 05:43:55;;;;;;;22.40;21.10;;;;;;;-2.24;100.00;101973.13;5035476;28;20057;-81
2022/03/09 05:46:28;;;;;;;22.27;20.98;;;;;;;-2.23;100.00;101972.09;5045806;28;20053;-81
2022/03/09 05:49:01;;;;;;;21.95;20.70;;;;;;;-2.24;100.00;101978.47;5045462;28;20536;-81
2022/03/09 05:51:34;;;;;;;21.77;20.58;;;;;;;-2.27;100.00;101964.63;5052684;28;20059;-81
2022/03/09 05:54:03;;;;;;;22.38;21.08;;;;;;;-2.31;100.00;101965.94;5042178;28;20148;-81
2022/03/09 05:56:37;;;;;;;23.60;22.30;;;;;;;-2.32;100.00;101966.91;5037399;28;20052;-81
2022/03/09 05:59:11;;;;;;;22.67;21.38;;;;;;;-2.27;100.00;101977.94;5038402;28;20061;-81
2022/03/09 06:01:44;;;;;;;25.65;24.25;;;;;;;-2.24;100.00;101973.13;5040956;28;20037;-82
2022/03/09 06:04:17;;;;;;;29.10;27.50;;;;;;;-2.08;100.00;101977.66;5056424;28;20389;-81
2022/03/09 06:06:50;;;;;;;30.10;28.40;;;;;;;-2.19;100.00;101961.13;5050019;28;20049;-81
2022/03/09 06:09:19;;;;;;;34.88;32.97;;;;;;;-2.14;100.00;101975.66;5033613;28;20490;-82
2022/03/09 06:11:53;;;;;;;30.58;28.88;;;;;;;-2.01;100.00;101985.84;5056904;28;20050;-81
2022/03/09 06:14:26;;;;;;;34.72;32.83;;;;;;;-1.97;100.00;101984.50;5044809;28;20572;-81
2022/03/09 06:16:54;;;;;;;32.30;30.50;;;;;;;-1.93;100.00;101990.38;5046909;28;20057;-80
2022/03/09 06:19:27;;;;;;;32.47;30.67;;;;;;;-1.94;100.00;101994.84;5051051;28;20053;-81
2022/03/09 06:22:00;;;;;;;32.42;30.65;;;;;;;-1.91;100.00;101994.50;5056830;28;20041;-81
2022/03/09 06:24:33;;;;;;;33.42;31.63;;;;;;;-1.85;100.00;101995.72;5051505;28;20377;-82
2022/03/09 06:27:08;;;;;;;35.10;33.20;;;;;;;-1.75;100.00;102000.88;5048593;28;20057;-81
2022/03/09 06:29:41;;;;;;;33.03;31.23;;;;;;;-1.76;100.00;102000.03;5033605;28;20402;-80
2022/03/09 06:32:14;;;;;;;36.22;34.25;;;;;;;-1.78;100.00;102002.06;5037149;28;20049;-81
2022/03/09 06:34:42;;;;;;;35.47;33.58;;;;;;;-1.67;100.00;102000.03;5046599;28;20056;-81
2022/03/09 06:37:15;;;;;;;38.33;36.25;;;;;;;-1.59;100.00;102005.38;5047958;28;20494;-81
2022/03/09 06:39:48;;;;;;;40.50;38.30;;;;;;;-1.52;100.00;101995.69;5061969;28;20413;-81
2022/03/09 06:42:22;;;;;;;39.67;37.58;;;;;;;-1.46;100.00;101999.56;5039980;28;20056;-81
2022/03/09 06:44:56;;;;;;;41.00;38.80;;;;;;;-1.34;100.00;101986.69;5043347;28;20770;-81
2022/03/09 06:47:24;;;;;;;42.35;40.08;;;;;;;-1.27;100.00;101998.38;5036184;28;20493;-82
2022/03/09 06:49:57;;;;;;;43.58;41.22;;;;;;;-1.25;100.00;101991.03;5043066;28;20602;-81
2022/03/09 06:52:25;;;;;;;43.85;41.47;;;;;;;-1.17;100.00;101995.50;5043360;28;20045;-81
2022/03/09 06:54:53;;;;;;;45.30;42.90;;;;;;;-1.18;100.00;101989.34;5040236;28;20076;-80
2022/03/09 06:57:28;;;;;;;42.08;39.78;;;;;;;-1.01;100.00;101994.66;5046303;28;20072;-80
2022/03/09 06:59:57;;;;;;;42.83;40.53;;;;;;;-0.90;100.00;101995.16;5049995;28;20057;-80
2022/03/09 07:02:30;;;;;;;41.85;39.58;;;;;;;-0.87;100.00;102008.16;5038818;28;20036;-80
2022/03/09 07:05:04;;;;;;;42.42;40.13;;;;;;;-0.86;100.00;102000.97;5041245;28;20814;-80
2022/03/09 07:07:38;;;;;;;39.50;37.38;;;;;;;-0.79;100.00;102003.78;5043452;28;20045;-80
2022/03/09 07:10:13;;;;;;;37.65;35.60;;;;;;;-0.74;100.00;102012.97;5040621;28;20052;-80
2022/03/09 07:12:47;;;;;;;36.42;34.42;;;;;;;-0.73;100.00;102011.97;5037912;28;20821;-80
2022/03/09 07:15:16;;;;;;;34.03;32.17;;;;;;;-0.66;100.00;102008.59;5049542;28;20057;-79
2022/03/09 07:17:50;;;;;;;32.67;30.88;;;;;;;-0.69;100.00;102005.25;5044383;28;20053;-80
2022/03/09 07:20:23;;;;;;;31.70;29.98;;;;;;;-0.63;100.00;102009.09;5039585;28;20048;-81
2022/03/09 07:22:57;;;;;;;30.00;28.35;;;;;;;-0.60;100.00;102011.41;5046911;28;20041;-80
2022/03/09 07:25:25;;;;;;;30.17;28.50;;;;;;;-0.56;100.00;102012.72;5036558;28;20057;-79
2022/03/09 07:27:56;;;;;;;28.13;26.52;;;;;;;-0.49;100.00;102020.06;5038101;28;20048;-80
2022/03/09 07:30:31;;;;;;;26.85;25.35;;;;;;;-0.44;100.00;102017.69;5039540;28;20067;-80
2022/03/09 07:33:04;;;;;;;28.00;26.42;;;;;;;-0.38;100.00;102014.34;5038684;28;20045;-81
2022/03/09 07:35:37;;;;;;;27.77;26.25;;;;;;;-0.24;100.00;102018.94;5039235;28;20493;-80
2022/03/09 07:38:07;;;;;;;28.25;26.67;;;;;;;-0.17;100.00;102011.06;5041066;28;20462;-80
2022/03/09 07:40:40;;;;;;;26.88;25.38;;;;;;;0.01;100.00;102010.78;5039041;28;20052;-81
2022/03/09 07:43:10;;;;;;;27.08;25.58;;;;;;;0.12;100.00;102013.03;5037048;28;20044;-80
2022/03/09 07:45:43;;;;;;;24.67;23.27;;;;;;;0.16;100.00;102000.16;5043923;28;20053;-81
2022/03/09 07:48:16;;;;;;;23.35;22.05;;;;;;;0.32;100.00;102017.97;5046078;28;20405;-80
2022/03/09 07:50:49;;;;;;;21.25;20.05;;;;;;;0.41;100.00;102027.56;5043616;28;20069;-83
2022/03/09 07:53:18;;;;;;;19.52;18.42;;;;;;;0.48;100.00;102025.03;5040959;28;20052;-81
2022/03/09 07:55:51;;;;;;;18.48;17.38;;;;;;;0.62;100.00;102028.75;5024145;28;20054;-81
2022/03/09 07:58:27;;;;;;;16.02;15.02;;;;;;;0.62;100.00;102015.34;5019282;28;20060;-81
2022/03/09 08:00:55;;;;;;;16.02;15.02;;;;;;;0.68;100.00;102030.72;5026164;28;21509;-81
2022/03/09 08:03:28;;;;;;;14.63;13.73;;;;;;;0.89;100.00;102022.00;5020560;28;20075;-81
2022/03/09 08:05:56;;;;;;;13.07;12.27;;;;;;;0.90;100.00;102022.81;5020967;28;20060;-80
2022/03/09 08:08:29;;;;;;;12.68;11.88;;;;;;;0.84;100.00;102022.53;5022411;28;20053;-81
2022/03/09 08:11:03;;;;;;;13.63;12.77;;;;;;;0.89;100.00;102026.53;5023115;28;20056;-81
2022/03/09 08:13:37;;;;;;;12.20;11.40;;;;;;;0.99;100.00;102030.59;5024025;28;20057;-81
2022/03/09 08:16:11;;;;;;;12.30;11.50;;;;;;;1.05;100.00;102033.56;5028001;28;20696;-81
2022/03/09 08:18:39;;;;;;;12.52;11.73;;;;;;;1.04;100.00;102024.69;5019505;28;20061;-81
2022/03/09 08:21:12;;;;;;;11.35;10.65;;;;;;;1.16;100.00;102031.28;5018695;28;20049;-80
2022/03/09 08:23:46;;;;;;;11.68;10.88;;;;;;;1.23;100.00;102022.47;5014541;28;20045;-81
2022/03/09 08:26:19;;;;;;;11.32;10.63;;;;;;;1.42;100.00;102034.50;5018324;28;20096;-80
2022/03/09 08:28:49;;;;;;;11.23;10.52;;;;;;;1.47;100.00;102021.38;5013236;28;20081;-81
2022/03/09 08:31:22;;;;;;;10.02;9.32;;;;;;;1.59;100.00;102027.94;5022914;28;20048;-81
2022/03/09 08:33:55;;;;;;;9.82;9.13;;;;;;;1.70;100.00;102022.09;5020979;28;20053;-81
2022/03/09 08:36:28;;;;;;;9.82;9.13;;;;;;;1.82;100.00;102021.59;5018659;28;20068;-81
2022/03/09 08:39:01;;;;;;;8.32;7.72;;;;;;;2.01;100.00;102022.84;5018774;28;20056;-81
2022/03/09 08:41:36;;;;;;;8.27;7.68;;;;;;;2.00;100.00;102027.41;5029596;28;20061;-81
2022/03/09 08:44:11;;;;;;;7.78;7.25;;;;;;;2.08;100.00;102026.44;5016357;28;20042;-81
2022/03/09 08:46:44;;;;;;;6.85;6.35;;;;;;;2.15;100.00;102027.34;5013131;28;20417;-81
2022/03/09 08:49:17;;;;;;;6.43;5.95;;;;;;;2.26;100.00;102027.88;5018289;28;20053;-81
2022/03/09 08:51:45;;;;;;;6.78;6.28;;;;;;;2.36;100.00;102036.44;5025654;28;20061;-81
2022/03/09 08:54:14;;;;;;;5.30;4.90;;;;;;;2.46;100.00;102039.66;5019996;28;20056;-81
2022/03/09 08:56:47;;;;;;;5.82;5.43;;;;;;;2.51;100.00;102036.38;5014393;28;20057;-82
2022/03/09 08:59:17;;;;;;;4.80;4.50;;;;;;;2.70;100.00;102043.78;5028992;28;20057;-81
2022/03/09 09:01:50;;;;;;;4.95;4.65;;;;;;;2.81;100.00;102039.75;5019434;28;20053;-81
2022/03/09 09:04:18;;;;;;;4.75;4.45;;;;;;;2.86;100.00;102047.25;5025239;28;20568;-81
2022/03/09 09:06:46;;;;;;;3.65;3.45;;;;;;;2.93;100.00;102041.91;5025139;28;20068;-81
2022/03/09 09:09:20;;;;;;;3.60;3.40;;;;;;;2.99;100.00;102031.19;5019875;28;20053;-82
2022/03/09 09:11:54;;;;;;;3.30;3.10;;;;;;;3.23;100.00;102027.22;5024694;28;20041;-81
2022/03/09 09:14:23;;;;;;;3.00;2.80;;;;;;;3.44;100.00;102030.88;5023891;28;20049;-81
2022/03/09 09:16:56;;;;;;;2.67;2.53;;;;;;;3.45;100.00;102032.50;5022805;28;21267;-82
2022/03/09 09:19:31;;;;;;;2.08;1.98;;;;;;;3.59;100.00;102036.13;5023121;28;21326;-81
2022/03/09 09:22:04;;;;;;;2.10;2.00;;;;;;;3.55;100.00;102041.06;5022412;28;20057;-81
2022/03/09 09:24:37;;;;;;;2.17;2.08;;;;;;;3.62;100.00;102040.25;5030716;28;20045;-81
2022/03/09 09:27:11;;;;;;;1.80;1.70;;;;;;;3.67;100.00;102037.81;5029246;28;20056;-82
2022/03/09 09:29:40;;;;;;;1.65;1.55;;;;;;;3.98;100.00;102034.63;5022941;28;20128;-80
2022/03/09 09:32:14;;;;;;;1.10;1.10;;;;;;;3.95;100.00;102037.72;5015886;28;20064;-81
2022/03/09 09:34:47;;;;;;;1.42;1.35;;;;;;;3.98;100.00;102041.84;5018015;28;20049;-81
2022/03/09 09:37:20;;;;;;;1.25;1.25;;;;;;;4.15;100.00;102039.63;5015413;28;20053;-81
2022/03/09 09:39:54;;;;;;;1.10;1.10;;;;;;;4.21;100.00;102031.56;5018116;28;20068;-81
2022/03/09 09:42:31;;;;;;;1.20;1.20;;;;;;;4.28;100.00;102031.59;5021347;28;20521;-82
2022/03/09 09:45:07;;;;;;;1.00;1.00;;;;;;;4.43;100.00;102034.94;5032819;28;20049;-81
2022/03/09 09:47:36;;;;;;;0.90;0.90;;;;;;;4.41;100.00;102033.47;5029388;28;20053;-81
2022/03/09 09:50:13;;;;;;;0.98;0.98;;;;;;;4.43;100.00;102031.38;5016379;28;20045;-81
2022/03/09 09:52:46;;;;;;;0.82;0.82;;;;;;;4.42;100.00;102029.75;5018823;28;20076;-81
2022/03/09 09:55:20;;;;;;;0.80;0.80;;;;;;;4.56;100.00;102027.91;5016693;28;20060;-81
2022/03/09 09:57:53;;;;;;;0.70;0.70;;;;;;;4.69;100.00;102032.47;5023671;28;20064;-80
2022/03/09 10:00:28;;;;;;;0.70;0.70;;;;;;;4.79;100.00;102027.47;5028048;28;20057;-80
2022/03/09 10:02:56;;;;;;;0.60;0.60;;;;;;;4.85;100.00;102029.34;5024658;28;20063;-81
2022/03/09 10:05:29;;;;;;;0.70;0.70;;;;;;;4.87;100.00;102021.84;5014957;28;20053;-81
2022/03/09 10:08:18;;;;;;;0.60;0.60;;;;;;;4.88;100.00;102020.00;5028618;28;20057;-81
2022/03/09 10:10:58;;;;;;;0.60;0.60;;;;;;;4.90;100.00;102024.16;5030737;28;20402;-81
2022/03/09 10:13:27;;;;;;;0.57;0.57;;;;;;;5.09;100.00;102024.34;5020073;28;20052;-81
2022/03/09 10:16:12;;;;;;;0.50;0.50;;;;;;;5.22;100.00;102024.31;5026763;28;20056;-81
2022/03/09 10:18:48;;;;;;;0.60;0.60;;;;;;;5.30;100.00;102020.56;5025788;28;20551;-82
2022/03/09 10:21:25;;;;;;;0.55;0.55;;;;;;;5.25;100.00;102021.19;5016619;28;20057;-81
2022/03/09 10:24:01;;;;;;;0.50;0.50;;;;;;;5.23;100.00;102031.38;5014813;28;20053;-81
2022/03/09 10:26:47;;;;;;;0.52;0.52;;;;;;;5.33;100.00;102032.81;5026808;28;20056;-82
2022/03/09 10:29:20;;;;;;;0.40;0.40;;;;;;;5.37;100.00;102040.28;5017784;28;20057;-82
2022/03/09 10:31:59;;;;;;;0.50;0.50;;;;;;;5.36;100.00;102044.03;5026297;28;21328;-82
2022/03/09 10:34:29;;;;;;;0.47;0.47;;;;;;;5.42;100.00;102043.16;5017164;28;20115;-82
2022/03/09 10:37:04;;;;;;;0.40;0.40;;;;;;;5.51;100.00;102051.03;5026178;28;20064;-82
2022/03/09 10:39:35;;;;;;;0.40;0.40;;;;;;;5.90;100.00;102041.13;5018350;28;20536;-82
2022/03/09 10:42:04;;;;;;;0.32;0.32;;;;;;;5.87;100.00;102044.25;5021546;28;20046;-81
2022/03/09 10:44:42;;;;;;;0.30;0.30;;;;;;;5.94;100.00;102040.50;5024546;28;20049;-81
2022/03/09 10:47:32;;;;;;;0.40;0.40;;;;;;;5.93;100.00;102048.81;5022663;28;20058;-82
2022/03/09 10:50:15;;;;;;;0.40;0.40;;;;;;;5.87;100.00;102034.28;5012789;28;20072;-81
2022/03/09 10:52:45;;;;;;;0.30;0.30;;;;;;;5.95;100.00;102047.56;5035077;28;20052;-80
2022/03/09 10:55:30;;;;;;;0.30;0.30;;;;;;;6.05;100.00;102041.72;5019561;28;20056;-81
2022/03/09 10:58:10;;;;;;;0.30;0.30;;;;;;;6.10;100.00;102032.94;5024506;28;20060;-81
2022/03/09 11:00:45;;;;;;;0.30;0.30;;;;;;;6.06;100.00;102032.56;5022574;28;20049;-82
2022/03/09 11:03:21;;;;;;;0.30;0.30;;;;;;;6.49;92.90;102030.22;5013166;28;20422;-81
2022/03/09 11:05:55;;;;;;;0.30;0.30;;;;;;;6.41;100.00;102031.31;5021267;28;20052;-81
2022/03/09 11:08:30;;;;;;;0.30;0.30;;;;;;;6.46;100.00;102024.22;5012808;28;20053;-82
2022/03/09 11:11:04;;;;;;;0.40;0.40;;;;;;;6.64;92.74;102028.00;5019595;28;20068;-81
2022/03/09 11:13:39;;;;;;;0.30;0.30;;;;;;;6.62;87.01;102016.59;5019242;28;20053;-83
2022/03/09 11:16:08;;;;;;;0.30;0.30;;;;;;;6.58;91.51;102018.91;5017178;28;20068;-82
2022/03/09 11:18:43;;;;;;;0.30;0.30;;;;;;;6.55;99.86;102024.75;5013917;28;20057;-81
2022/03/09 11:21:11;;;;;;;0.28;0.28;;;;;;;6.87;82.22;102019.28;5013003;28;20052;-80
2022/03/09 11:23:45;;;;;;;0.30;0.30;;;;;;;6.90;70.54;102012.63;5018278;28;20054;-81
2022/03/09 11:26:21;;;;;;;0.30;0.30;;;;;;;6.81;75.10;102015.59;5037827;28;20060;-81
2022/03/09 11:29:01;;;;;;;0.20;0.20;;;;;;;6.74;73.55;102013.97;5022684;28;20061;-81
2022/03/09 11:31:51;;;;;;;0.25;0.25;;;;;;;7.03;67.60;102009.78;5018869;28;20060;-81
2022/03/09 11:34:34;;;;;;;0.20;0.20;;;;;;;7.05;74.84;102001.44;5018612;28;20426;-81
2022/03/09 11:37:09;;;;;;;0.30;0.30;;;;;;;7.09;82.43;102013.47;5022919;28;20053;-82
2022/03/09 11:39:44;;;;;;;0.30;0.30;;;;;;;6.85;73.66;101998.91;5027505;28;20061;-82
2022/03/09 11:42:36;;;;;;;0.20;0.20;;;;;;;7.19;63.42;102008.38;5027771;28;20053;-81
2022/03/09 11:45:32;;;;;;;0.20;0.20;;;;;;;7.20;81.01;101999.19;5020633;28;20049;-81